Time;durP1;ratioP1;P1;durP2;ratioP2;P2;SDS_P1;SDS_P2;PMS_P1;PMS_P2;Temp;Humidity;BMP_temperature;BMP_pressure;BME280_temperature;BME280_humidity;BME280_pressure;Samples;Min_cycle;Max_cycle;Signal;HPM_P1;HPM_P2
2022/09/30 00:01:31;;;;;;;3.65;2.78;;;9.60;99.90;;;;;;5053407;28;20306;-62
2022/09/30 00:03:58;;;;;;;4.00;2.28;;;9.70;99.90;;;;;;5050987;28;20043;-61
2022/09/30 00:06:26;;;;;;;5.50;3.22;;;9.60;99.90;;;;;;5057455;28;20202;-62
2022/09/30 00:08:52;;;;;;;3.95;2.10;;;9.60;99.90;;;;;;5054648;28;20368;-61
2022/09/30 00:11:26;;;;;;;5.57;2.40;;;9.50;99.90;;;;;;5060814;28;20446;-61
2022/09/30 00:13:52;;;;;;;;;;;9.60;99.90;;;;;;5058633;28;20127;-61
2022/09/30 00:16:20;;;;;;;4.82;2.05;;;9.60;99.90;;;;;;5061980;28;20073;-60
2022/09/30 00:18:46;;;;;;;2.83;2.10;;;9.50;99.90;;;;;;5056614;28;20116;-60
2022/09/30 00:21:14;;;;;;;3.60;2.20;;;9.40;99.90;;;;;;5062565;28;20059;-60
2022/09/30 00:23:40;;;;;;;5.72;2.40;;;9.40;99.90;;;;;;5051853;28;20040;-60
2022/09/30 00:26:11;;;;;;;4.03;2.33;;;9.40;99.90;;;;;;5059479;28;20258;-62
2022/09/30 00:28:36;;;;;;;3.45;2.63;;;9.30;99.90;;;;;;5057128;28;20040;-61
2022/09/30 00:31:06;;;;;;;3.40;2.35;;;9.20;99.90;;;;;;5053872;28;20049;-61
2022/09/30 00:33:32;;;;;;;6.15;2.90;;;9.20;99.90;;;;;;5056459;28;20116;-62
2022/09/30 00:35:59;;;;;;;4.25;2.08;;;9.20;99.90;;;;;;5056842;28;20044;-62
2022/09/30 00:38:24;;;;;;;3.50;2.65;;;9.20;99.90;;;;;;5060939;28;20415;-62
2022/09/30 00:40:50;;;;;;;4.20;2.50;;;9.20;99.90;;;;;;5064096;28;20037;-61
2022/09/30 00:43:19;;;;;;;4.72;2.78;;;9.20;99.90;;;;;;5058743;28;20503;-62
2022/09/30 00:45:58;;;;;;;5.22;2.58;;;9.10;99.90;;;;;;5057438;28;20568;-61
2022/09/30 00:48:33;;;;;;;3.72;1.95;;;9.10;99.90;;;;;;5059610;28;20033;-62
2022/09/30 00:51:01;;;;;;;2.92;2.20;;;9.10;99.90;;;;;;5058771;28;20037;-62
2022/09/30 00:53:29;;;;;;;3.42;2.47;;;9.10;99.90;;;;;;5059728;28;20044;-60
2022/09/30 00:56:13;;;;;;;4.38;2.60;;;9.10;99.90;;;;;;5064061;28;20525;-61
2022/09/30 00:58:53;;;;;;;4.80;2.47;;;9.20;99.90;;;;;;5062452;28;20033;-61
2022/09/30 01:01:20;;;;;;;3.88;2.40;;;9.20;99.90;;;;;;5065057;28;20098;-62
2022/09/30 01:03:55;;;;;;;4.72;2.40;;;9.20;99.90;;;;;;5055851;23;20228;-58
2022/09/30 01:06:23;;;;;;;2.92;1.90;;;9.20;99.90;;;;;;5040898;28;20049;-60
2022/09/30 01:08:49;;;;;;;3.50;2.33;;;9.10;99.90;;;;;;5044447;28;20099;-57
2022/09/30 01:11:15;;;;;;;2.95;2.38;;;9.10;99.90;;;;;;5033644;28;20401;-59
2022/09/30 01:13:44;;;;;;;4.05;2.75;;;9.00;99.90;;;;;;5027372;28;20103;-59
2022/09/30 01:16:41;;;;;;;3.55;1.90;;;8.90;99.90;;;;;;5021548;28;20112;-60
2022/09/30 01:19:40;;;;;;;2.67;1.95;;;8.80;99.90;;;;;;5024480;28;20077;-60
2022/09/30 01:22:45;;;;;;;2.47;1.88;;;8.80;99.90;;;;;;5022479;28;20053;-58
2022/09/30 01:25:32;;;;;;;1.85;1.45;;;8.70;99.90;;;;;;5003816;28;20096;-60
2022/09/30 01:28:13;;;;;;;2.95;1.40;;;8.60;99.90;;;;;;5037552;28;20087;-60
2022/09/30 01:30:58;;;;;;;2.50;1.83;;;8.50;99.90;;;;;;5031695;28;20052;-60
2022/09/30 01:33:46;;;;;;;4.35;2.08;;;8.50;99.90;;;;;;5020328;28;20049;-59
2022/09/30 01:36:48;;;;;;;4.72;2.00;;;8.50;99.90;;;;;;5019516;28;20040;-60
2022/09/30 01:39:33;;;;;;;2.45;2.00;;;8.50;99.90;;;;;;5025524;28;20033;-60
2022/09/30 01:42:41;;;;;;;4.78;2.42;;;8.40;99.90;;;;;;5020569;28;20034;-60
2022/09/30 01:45:32;;;;;;;5.18;2.67;;;8.40;99.90;;;;;;4967092;28;20044;-60
2022/09/30 01:48:27;;;;;;;3.63;2.35;;;8.50;99.90;;;;;;4992838;28;20045;-57
2022/09/30 01:51:06;;;;;;;4.85;2.75;;;8.50;99.90;;;;;;5010753;28;20056;-61
2022/09/30 01:53:55;;;;;;;4.43;2.83;;;8.50;99.90;;;;;;5022877;28;20037;-61
2022/09/30 01:56:23;;;;;;;3.72;2.10;;;8.50;99.90;;;;;;5026543;28;20551;-61
2022/09/30 01:58:56;;;;;;;3.03;2.22;;;8.50;99.90;;;;;;5020474;28;20040;-61
2022/09/30 02:01:38;;;;;;;4.28;2.85;;;8.50;99.90;;;;;;5031805;28;20483;-61
2022/09/30 02:04:11;;;;;;;3.85;2.55;;;8.50;99.90;;;;;;5019952;28;20046;-60
2022/09/30 02:06:43;;;;;;;5.35;2.97;;;8.50;99.90;;;;;;5021204;28;20036;-60
2022/09/30 02:09:17;;;;;;;3.78;2.53;;;8.50;99.90;;;;;;5022988;28;20049;-59
2022/09/30 02:11:43;;;;;;;4.57;2.97;;;8.50;99.90;;;;;;5023982;28;20049;-61
2022/09/30 02:14:08;;;;;;;3.95;2.88;;;8.50;99.90;;;;;;5029614;28;20049;-60
2022/09/30 02:16:41;;;;;;;4.18;3.00;;;8.50;99.90;;;;;;5022169;28;20033;-59
2022/09/30 02:19:19;;;;;;;5.45;2.75;;;8.40;99.90;;;;;;5016096;28;20078;-59
2022/09/30 02:21:54;;;;;;;3.80;2.15;;;8.40;99.90;;;;;;5033150;28;20124;-57
2022/09/30 02:24:24;;;;;;;4.43;2.80;;;8.40;99.90;;;;;;5015411;28;20052;-60
2022/09/30 02:26:55;;;;;;;4.78;3.00;;;8.40;99.90;;;;;;5010865;28;20105;-59
2022/09/30 02:29:26;;;;;;;3.95;2.65;;;8.40;99.90;;;;;;5012677;28;20041;-62
2022/09/30 02:31:57;;;;;;;3.40;2.22;;;8.40;99.90;;;;;;5012071;28;20479;-61
2022/09/30 02:34:36;;;;;;;3.75;2.45;;;8.40;99.90;;;;;;5011223;28;20111;-61
2022/09/30 02:37:13;;;;;;;4.07;2.47;;;8.40;99.90;;;;;;5016527;28;20252;-61
2022/09/30 02:39:47;;;;;;;4.32;2.20;;;8.40;99.90;;;;;;5013919;28;20049;-60
2022/09/30 02:42:22;;;;;;;4.03;2.10;;;8.40;99.90;;;;;;5017502;28;20051;-60
2022/09/30 02:44:52;;;;;;;4.53;2.25;;;8.50;99.90;;;;;;5011712;28;20049;-59
2022/09/30 02:47:25;;;;;;;3.95;2.20;;;8.50;99.90;;;;;;5020377;28;20045;-59
2022/09/30 02:50:13;;;;;;;4.55;2.22;;;8.50;99.90;;;;;;5011280;28;20045;-60
2022/09/30 02:53:15;;;;;;;4.50;2.55;;;8.50;99.90;;;;;;5019845;28;21169;-61
2022/09/30 02:56:00;;;;;;;4.65;2.53;;;8.50;99.90;;;;;;5014755;28;20216;-61
2022/09/30 02:58:26;;;;;;;3.72;1.98;;;8.50;99.90;;;;;;5013686;28;20133;-61
2022/09/30 03:00:53;;;;;;;3.85;2.83;;;8.40;99.90;;;;;;5010467;28;20735;-61
2022/09/30 03:03:28;;;;;;;3.70;2.50;;;8.40;99.90;;;;;;5020179;28;20045;-61
2022/09/30 03:05:54;;;;;;;4.70;2.47;;;8.40;99.90;;;;;;5016189;28;20128;-61
2022/09/30 03:08:20;;;;;;;3.58;2.25;;;8.30;99.90;;;;;;5013221;28;20036;-60
2022/09/30 03:10:49;;;;;;;3.72;2.42;;;8.30;99.90;;;;;;5017925;28;20077;-59
2022/09/30 03:13:42;;;;;;;2.78;2.10;;;8.30;99.90;;;;;;5032316;28;20036;-59
2022/09/30 03:16:22;;;;;;;3.55;1.90;;;8.20;99.90;;;;;;5019573;28;20459;-60
2022/09/30 03:19:23;;;;;;;3.00;2.13;;;8.20;99.90;;;;;;5029651;28;20507;-57
2022/09/30 03:22:08;;;;;;;2.90;2.20;;;8.10;99.90;;;;;;5000127;28;20128;-61
2022/09/30 03:25:00;;;;;;;2.60;2.20;;;8.10;99.90;;;;;;5030832;28;20040;-60
2022/09/30 03:28:04;;;;;;;2.75;2.05;;;8.10;99.90;;;;;;5014399;28;20040;-60
2022/09/30 03:30:32;;;;;;;2.22;1.67;;;8.10;99.90;;;;;;5022580;28;20516;-59
2022/09/30 03:33:09;;;;;;;2.85;2.10;;;8.10;99.90;;;;;;5007251;28;20112;-60
2022/09/30 03:36:07;;;;;;;3.97;2.28;;;8.10;99.90;;;;;;5015364;28;20042;-59
2022/09/30 03:38:45;;;;;;;2.20;1.33;;;8.00;99.90;;;;;;4986763;28;20061;-57
2022/09/30 03:41:34;;;;;;;2.92;1.80;;;8.00;99.90;;;;;;5021982;28;20057;-57
2022/09/30 03:44:04;;;;;;;2.63;2.00;;;8.00;99.90;;;;;;5007898;28;20050;-59
2022/09/30 03:46:35;;;;;;;2.95;1.90;;;7.90;99.90;;;;;;5020809;28;20047;-59
2022/09/30 03:49:06;;;;;;;3.05;1.70;;;7.90;99.90;;;;;;5027686;28;20092;-60
2022/09/30 03:51:36;;;;;;;3.75;2.10;;;7.80;99.90;;;;;;5031667;28;20041;-59
2022/09/30 03:54:09;;;;;;;16.35;3.85;;;7.90;99.90;;;;;;5027501;28;20041;-60
2022/09/30 03:56:36;;;;;;;3.15;2.40;;;7.90;99.90;;;;;;5021177;28;20083;-60
2022/09/30 03:59:02;;;;;;;4.45;3.22;;;7.90;99.90;;;;;;5023875;28;20347;-59
2022/09/30 04:01:28;;;;;;;5.35;4.00;;;7.80;99.90;;;;;;5025762;28;20112;-59
2022/09/30 04:03:54;;;;;;;4.38;3.15;;;7.90;99.90;;;;;;5030294;28;20041;-60
2022/09/30 04:06:22;;;;;;;2.53;1.95;;;7.80;99.90;;;;;;5024241;28;20042;-58
2022/09/30 04:08:49;;;;;;;2.75;2.10;;;7.80;99.90;;;;;;5023053;28;20041;-60
2022/09/30 04:11:15;;;;;;;3.42;1.95;;;7.90;99.90;;;;;;5016771;28;20046;-57
2022/09/30 04:13:41;;;;;;;3.35;2.20;;;7.80;99.90;;;;;;5012542;28;20103;-57
2022/09/30 04:16:07;;;;;;;3.38;1.77;;;7.80;99.90;;;;;;5016831;28;20053;-61
2022/09/30 04:18:37;;;;;;;3.08;2.15;;;7.80;99.90;;;;;;5006402;28;20084;-61
2022/09/30 04:21:07;;;;;;;2.50;1.70;;;7.70;99.90;;;;;;5019515;28;20038;-61
2022/09/30 04:23:42;;;;;;;2.60;1.75;;;7.70;99.90;;;;;;5000674;28;20030;-61
2022/09/30 04:26:11;;;;;;;2.03;1.50;;;8.00;99.90;;;;;;5019572;28;20040;-60
2022/09/30 04:28:37;;;;;;;3.97;2.05;;;7.70;99.90;;;;;;5016922;28;20260;-57
2022/09/30 04:31:04;;;;;;;2.78;2.20;;;7.70;99.90;;;;;;5000992;28;20076;-61
2022/09/30 04:33:30;;;;;;;2.45;1.45;;;7.70;99.90;;;;;;5010198;28;20094;-61
2022/09/30 04:35:57;;;;;;;3.13;2.13;;;7.60;99.90;;;;;;5013341;28;20463;-61
2022/09/30 04:38:23;;;;;;;2.60;1.85;;;7.70;99.90;;;;;;5016105;28;20107;-60
2022/09/30 04:40:56;;;;;;;3.00;2.20;;;7.70;99.90;;;;;;5017356;28;20041;-60
2022/09/30 04:43:23;;;;;;;3.28;2.33;;;7.60;99.90;;;;;;5000080;28;20073;-60
2022/09/30 04:45:51;;;;;;;2.83;2.30;;;7.60;99.90;;;;;;5009890;28;20046;-60
2022/09/30 04:48:17;;;;;;;3.20;2.38;;;7.60;99.90;;;;;;5014009;28;20498;-58
2022/09/30 04:50:43;;;;;;;3.10;2.00;;;7.60;99.90;;;;;;5015828;28;20129;-60
2022/09/30 04:53:13;;;;;;;2.05;1.40;;;7.50;99.90;;;;;;5002893;28;20043;-59
2022/09/30 04:55:43;;;;;;;2.78;2.40;;;7.60;99.90;;;;;;5012480;28;20057;-62
2022/09/30 04:58:10;;;;;;;3.10;2.30;;;7.60;99.90;;;;;;5015185;28;20076;-61
2022/09/30 05:00:36;;;;;;;1.40;1.30;;;7.60;99.90;;;;;;4997842;28;20132;-61
2022/09/30 05:03:03;;;;;;;3.40;2.42;;;7.50;99.90;;;;;;4998037;28;20045;-61
2022/09/30 05:05:29;;;;;;;2.60;1.85;;;7.50;99.90;;;;;;5020561;28;20069;-60
2022/09/30 05:08:02;;;;;;;5.75;3.00;;;7.50;99.90;;;;;;5015892;28;20045;-60
2022/09/30 05:10:28;;;;;;;2.73;2.20;;;7.50;99.90;;;;;;5022083;28;20064;-60
2022/09/30 05:12:55;;;;;;;1.77;1.45;;;7.50;99.90;;;;;;5031317;28;20511;-61
2022/09/30 05:15:21;;;;;;;3.83;2.60;;;7.50;99.90;;;;;;5024157;28;20120;-60
2022/09/30 05:17:51;;;;;;;3.88;2.75;;;7.50;99.90;;;;;;5023308;28;20135;-61
2022/09/30 05:20:17;;;;;;;3.47;2.58;;;7.60;99.90;;;;;;5015768;28;20053;-61
2022/09/30 05:22:43;;;;;;;4.45;2.35;;;7.60;99.90;;;;;;5011762;28;20566;-60
2022/09/30 05:25:08;;;;;;;3.83;2.75;;;7.60;99.90;;;;;;5010385;28;20041;-60
2022/09/30 05:27:34;;;;;;;3.90;2.70;;;7.70;99.90;;;;;;5016252;28;20508;-60
2022/09/30 05:30:00;;;;;;;11.05;3.67;;;7.60;99.90;;;;;;5023268;28;20080;-60
2022/09/30 05:32:26;;;;;;;7.10;3.72;;;7.60;99.90;;;;;;4999703;28;20046;-60
2022/09/30 05:34:54;;;;;;;51.05;5.35;;;7.50;99.90;;;;;;5013871;28;20758;-58
2022/09/30 05:37:20;;;;;;;10.32;3.25;;;7.50;99.90;;;;;;5013870;28;20114;-59
2022/09/30 05:39:46;;;;;;;11.38;3.60;;;7.40;99.90;;;;;;5007715;28;20119;-60
2022/09/30 05:42:12;;;;;;;13.65;5.38;;;7.40;99.90;;;;;;5018097;28;20049;-59
2022/09/30 05:44:38;;;;;;;15.50;4.15;;;7.30;99.90;;;;;;5015974;28;20042;-58
2022/09/30 05:47:04;;;;;;;7.20;2.72;;;7.30;99.90;;;;;;5015566;28;20235;-58
2022/09/30 05:49:33;;;;;;;3.92;2.35;;;7.30;99.90;;;;;;5012642;28;20515;-56
2022/09/30 05:51:59;;;;;;;13.00;2.83;;;7.30;99.90;;;;;;5017023;28;20478;-59
2022/09/30 05:54:25;;;;;;;13.82;3.20;;;7.40;99.90;;;;;;5014642;28;20140;-62
2022/09/30 05:56:51;;;;;;;11.45;3.42;;;7.40;99.90;;;;;;5015871;28;20030;-58
2022/09/30 05:59:18;;;;;;;7.80;3.00;;;7.40;99.90;;;;;;5014386;28;20294;-60
2022/09/30 06:01:44;;;;;;;6.57;2.88;;;7.50;99.90;;;;;;5007927;28;20200;-61
2022/09/30 06:04:10;;;;;;;9.50;3.55;;;7.50;99.90;;;;;;5022534;28;20558;-61
2022/09/30 06:06:36;;;;;;;9.23;3.30;;;7.50;99.90;;;;;;5013714;28;20034;-58
2022/09/30 06:09:02;;;;;;;6.85;2.40;;;7.50;99.90;;;;;;5009778;28;20038;-60
2022/09/30 06:11:28;;;;;;;8.35;3.25;;;7.50;99.90;;;;;;5018490;28;20054;-60
2022/09/30 06:13:55;;;;;;;3.63;2.60;;;7.60;99.90;;;;;;5016424;28;20646;-61
2022/09/30 06:16:22;;;;;;;5.53;3.20;;;7.60;99.90;;;;;;5006391;28;20042;-59
2022/09/30 06:18:48;;;;;;;3.92;3.30;;;7.60;99.90;;;;;;5001186;28;20196;-61
2022/09/30 06:21:16;;;;;;;8.23;3.50;;;7.70;99.90;;;;;;5020525;28;20551;-60
2022/09/30 06:23:43;;;;;;;4.82;3.40;;;7.70;99.90;;;;;;5015233;28;20041;-62
2022/09/30 06:26:10;;;;;;;4.55;3.20;;;7.70;99.90;;;;;;5018000;28;20061;-61
2022/09/30 06:28:36;;;;;;;4.47;3.05;;;7.70;99.90;;;;;;5016255;28;20033;-60
2022/09/30 06:31:04;;;;;;;4.97;3.40;;;7.80;99.90;;;;;;5015582;28;20221;-59
2022/09/30 06:33:30;;;;;;;4.82;3.60;;;7.80;99.90;;;;;;5011681;28;20046;-56
2022/09/30 06:35:56;;;;;;;4.43;3.22;;;8.10;99.90;;;;;;5012106;28;20045;-60
2022/09/30 06:38:22;;;;;;;5.60;4.07;;;8.70;99.90;;;;;;5012192;28;20053;-58
2022/09/30 06:40:49;;;;;;;4.75;3.72;;;9.30;99.90;;;;;;5011588;28;20029;-59
2022/09/30 06:43:15;;;;;;;4.22;3.50;;;9.60;99.90;;;;;;5010282;28;20041;-61
2022/09/30 06:45:41;;;;;;;5.35;3.70;;;9.70;99.90;;;;;;5012398;28;20458;-59
2022/09/30 06:48:08;;;;;;;4.70;3.60;;;9.70;99.90;;;;;;5009673;28;20080;-61
2022/09/30 06:50:34;;;;;;;4.68;3.53;;;9.60;99.90;;;;;;5019103;28;20038;-61
2022/09/30 06:53:02;;;;;;;4.55;3.58;;;9.60;99.90;;;;;;5014686;28;20037;-61
2022/09/30 06:55:29;;;;;;;5.30;3.97;;;9.60;99.90;;;;;;5020152;28;20050;-61
2022/09/30 06:57:55;;;;;;;4.47;3.17;;;9.70;99.90;;;;;;5019149;28;20072;-61
2022/09/30 07:00:23;;;;;;;4.80;4.07;;;9.70;99.90;;;;;;5028310;28;20053;-61
2022/09/30 07:02:49;;;;;;;5.65;4.30;;;9.80;99.90;;;;;;5040749;22;20049;-55
2022/09/30 07:05:16;;;;;;;5.43;4.40;;;10.00;99.90;;;;;;5014175;28;20117;-60
2022/09/30 07:07:42;;;;;;;5.07;4.00;;;10.10;99.90;;;;;;5011440;28;20084;-60
2022/09/30 07:10:09;;;;;;;4.57;4.03;;;10.20;99.90;;;;;;5012504;28;20171;-66
2022/09/30 07:12:35;;;;;;;5.80;4.03;;;10.30;99.90;;;;;;5008757;28;20084;-57
2022/09/30 07:15:01;;;;;;;5.38;3.72;;;10.50;99.90;;;;;;4994269;28;20034;-57
2022/09/30 07:17:27;;;;;;;5.60;4.45;;;10.60;99.90;;;;;;5010885;28;20057;-57
2022/09/30 07:19:53;;;;;;;5.65;4.60;;;10.60;99.90;;;;;;5010900;28;20519;-57
2022/09/30 07:22:33;;;;;;;6.10;4.50;;;10.70;99.90;;;;;;5007994;28;20120;-57
2022/09/30 07:25:04;;;;;;;5.88;4.32;;;10.70;99.90;;;;;;5004630;28;20046;-61
2022/09/30 07:27:32;;;;;;;5.10;4.00;;;10.80;99.90;;;;;;5005399;28;20045;-57
2022/09/30 07:29:59;;;;;;;4.97;4.28;;;10.80;99.90;;;;;;5011134;28;20096;-60
2022/09/30 07:32:25;;;;;;;8.30;5.38;;;10.90;99.90;;;;;;5004256;28;20640;-61
2022/09/30 07:34:50;;;;;;;7.72;5.35;;;11.00;99.90;;;;;;5001745;28;20030;-60
2022/09/30 07:37:18;;;;;;;6.93;5.55;;;11.10;99.90;;;;;;5005575;28;20041;-58
2022/09/30 07:39:46;;;;;;;6.20;4.38;;;11.20;99.90;;;;;;5004529;28;20030;-58
2022/09/30 07:42:19;;;;;;;6.50;5.15;;;11.30;99.90;;;;;;5008515;28;20045;-57
2022/09/30 07:44:44;;;;;;;8.43;5.07;;;11.30;99.90;;;;;;5009846;28;20053;-59
2022/09/30 07:47:13;;;;;;;6.25;5.05;;;11.50;99.90;;;;;;5007474;28;20497;-56
2022/09/30 07:49:41;;;;;;;6.28;4.70;;;11.60;99.90;;;;;;4995913;28;20038;-59
2022/09/30 07:52:08;;;;;;;5.47;4.68;;;11.70;99.90;;;;;;4993760;28;20038;-56
2022/09/30 07:54:34;;;;;;;5.22;4.65;;;11.80;99.90;;;;;;5003326;28;20397;-56
2022/09/30 07:57:02;;;;;;;5.45;4.65;;;11.90;99.90;;;;;;4996654;28;20077;-57
2022/09/30 07:59:30;;;;;;;6.93;5.05;;;12.00;99.90;;;;;;4996801;28;20034;-57
2022/09/30 08:01:56;;;;;;;8.27;5.55;;;12.10;99.90;;;;;;5004204;28;20429;-58
2022/09/30 08:04:24;;;;;;;5.72;4.90;;;12.20;99.90;;;;;;5013114;28;20121;-57
2022/09/30 08:06:58;;;;;;;45.22;34.47;;;12.30;99.90;;;;;;5024105;28;20041;-57
2022/09/30 08:09:27;;;;;;;7.43;5.15;;;12.40;99.90;;;;;;5020436;28;20033;-60
2022/09/30 08:11:53;;;;;;;8.38;6.43;;;12.50;99.90;;;;;;4998658;28;20037;-56
2022/09/30 08:14:24;;;;;;;7.88;6.95;;;12.60;99.90;;;;;;5008404;28;20038;-59
2022/09/30 08:16:51;;;;;;;10.02;6.78;;;12.60;99.90;;;;;;5016731;28;20187;-57
2022/09/30 08:19:19;;;;;;;8.80;6.63;;;12.50;99.90;;;;;;4986639;28;20041;-56
2022/09/30 08:21:46;;;;;;;8.48;6.45;;;12.40;99.90;;;;;;4983741;28;20304;-57
2022/09/30 08:24:12;;;;;;;14.75;7.55;;;12.40;99.90;;;;;;5015894;28;20037;-59
2022/09/30 08:26:38;;;;;;;15.48;7.05;;;12.40;99.90;;;;;;5020803;28;20037;-59
2022/09/30 08:29:05;;;;;;;7.35;6.35;;;12.30;99.90;;;;;;5015598;28;20041;-55
2022/09/30 08:31:32;;;;;;;8.02;5.75;;;12.30;99.90;;;;;;4986979;28;20411;-57
2022/09/30 08:33:58;;;;;;;6.75;5.72;;;12.40;99.90;;;;;;5010726;28;22971;-58
2022/09/30 08:36:26;;;;;;;8.13;5.75;;;12.50;99.90;;;;;;4989171;28;20050;-56
2022/09/30 08:38:52;;;;;;;7.55;6.28;;;12.60;99.90;;;;;;4964900;28;20405;-56
2022/09/30 08:41:42;;;;;;;7.28;6.30;;;12.70;99.90;;;;;;4964738;28;20049;-59
2022/09/30 08:44:39;;;;;;;6.28;5.50;;;12.90;99.90;;;;;;4962337;28;20531;-57
2022/09/30 08:47:15;;;;;;;6.32;5.70;;;13.00;99.90;;;;;;4984505;28;22137;-60
2022/09/30 08:50:00;;;;;;;5.95;5.35;;;13.10;99.90;;;;;;4975100;28;20050;-59
2022/09/30 08:52:34;;;;;;;5.75;5.15;;;13.30;99.90;;;;;;4973471;28;20409;-59
2022/09/30 08:55:00;;;;;;;5.75;4.60;;;13.40;99.90;;;;;;4955936;28;20092;-54
2022/09/30 08:57:36;;;;;;;5.25;4.70;;;13.50;99.90;;;;;;4983023;28;20050;-57
2022/09/30 09:00:08;;;;;;;4.63;4.20;;;13.70;99.90;;;;;;4985757;28;20061;-62
2022/09/30 09:02:44;;;;;;;4.50;3.88;;;13.80;99.90;;;;;;4976324;28;20109;-59
2022/09/30 09:05:30;;;;;;;4.95;3.95;;;14.00;99.90;;;;;;4973806;28;20038;-59
2022/09/30 09:08:01;;;;;;;6.72;4.60;;;14.10;99.90;;;;;;4978680;28;20493;-61
2022/09/30 09:10:58;;;;;;;6.18;5.47;;;14.20;99.90;;;;;;4968159;28;20053;-59
2022/09/30 09:13:41;;;;;;;7.13;5.70;;;14.30;99.90;;;;;;4960626;28;20125;-60
2022/09/30 09:16:43;;;;;;;6.10;5.38;;;14.50;99.90;;;;;;4967442;28;20396;-61
2022/09/30 09:19:14;;;;;;;6.05;5.38;;;14.70;99.90;;;;;;4983415;28;20064;-61
2022/09/30 09:21:55;;;;;;;8.20;5.32;;;14.70;99.90;;;;;;4969496;28;20089;-60
2022/09/30 09:24:24;;;;;;;6.88;6.18;;;14.80;99.90;;;;;;4968684;28;20057;-61
2022/09/30 09:26:53;;;;;;;13.10;6.90;;;14.80;99.90;;;;;;4971547;28;20038;-62
2022/09/30 09:29:33;;;;;;;6.78;5.80;;;14.90;99.90;;;;;;4984517;28;20035;-62
2022/09/30 09:32:00;;;;;;;7.25;6.30;;;14.90;99.90;;;;;;4987328;28;20370;-61
2022/09/30 09:34:30;;;;;;;7.75;6.78;;;15.00;99.90;;;;;;4983870;28;20509;-62
2022/09/30 09:36:58;;;;;;;8.48;6.45;;;15.10;99.90;;;;;;4980528;28;20457;-61
2022/09/30 09:39:54;;;;;;;6.70;6.10;;;15.20;99.90;;;;;;4976033;28;20464;-60
2022/09/30 09:42:23;;;;;;;9.48;6.22;;;15.30;99.90;;;;;;4971649;28;20052;-59
2022/09/30 09:45:02;;;;;;;7.75;6.97;;;15.40;99.90;;;;;;4974242;28;20039;-58
2022/09/30 09:47:27;;;;;;;10.02;7.25;;;15.50;99.90;;;;;;4999113;28;20490;-59
2022/09/30 09:49:56;;;;;;;6.70;6.05;;;15.60;99.90;;;;;;4995910;28;20116;-62
2022/09/30 09:52:56;;;;;;;8.02;6.97;;;15.80;99.90;;;;;;4968235;28;20092;-58
2022/09/30 09:55:22;;;;;;;8.07;6.90;;;16.00;99.90;;;;;;4984637;28;20125;-61
2022/09/30 09:58:03;;;;;;;8.40;7.43;;;16.00;99.90;;;;;;4982757;28;20100;-59
2022/09/30 10:03:23;;;;;;;7.38;6.68;;;16.10;99.90;;;;;;4984471;28;20039;-61
2022/09/30 10:06:06;;;;;;;9.77;6.35;;;16.20;99.90;;;;;;4974785;28;20383;-58
2022/09/30 10:08:38;;;;;;;6.47;5.72;;;16.40;99.90;;;;;;4980570;28;20433;-57
2022/09/30 10:11:18;;;;;;;7.50;5.65;;;16.50;99.90;;;;;;4963504;28;20446;-60
2022/09/30 10:13:45;;;;;;;4.97;3.50;;;16.60;99.90;;;;;;4981405;28;20039;-56
2022/09/30 10:16:36;;;;;;;5.78;3.13;;;16.60;99.90;;;;;;4976165;28;20445;-59
2022/09/30 10:19:17;;;;;;;5.40;3.33;;;16.60;99.90;;;;;;4981722;28;20552;-60
2022/09/30 10:21:42;;;;;;;5.45;2.63;;;16.60;99.90;;;;;;4961559;28;20390;-62
2022/09/30 10:24:28;;;;;;;3.22;2.42;;;16.60;99.90;;;;;;4954303;28;20042;-61
2022/09/30 10:26:54;;;;;;;5.75;2.85;;;16.70;99.90;;;;;;4975481;28;20475;-61
2022/09/30 10:29:46;;;;;;;2.95;2.25;;;16.80;99.90;;;;;;4985404;28;20049;-61
2022/09/30 10:32:12;;;;;;;3.97;2.22;;;17.00;99.90;;;;;;4964437;28;20034;-61
2022/09/30 10:34:41;;;;;;;4.90;3.22;;;17.10;99.90;;;;;;4965130;28;20101;-60
2022/09/30 10:37:08;;;;;;;2.88;2.00;;;17.20;99.90;;;;;;4984596;28;20078;-58
2022/09/30 10:39:37;;;;;;;3.05;2.10;;;17.40;99.90;;;;;;4979879;28;20038;-60
2022/09/30 10:42:03;;;;;;;3.97;2.42;;;17.40;99.90;;;;;;4982518;28;20038;-58
2022/09/30 10:44:29;;;;;;;2.83;2.53;;;17.40;99.90;;;;;;4967423;28;20042;-59
2022/09/30 10:47:01;;;;;;;4.07;2.50;;;17.40;99.90;;;;;;4978545;28;20096;-61
2022/09/30 10:49:34;;;;;;;5.10;2.88;;;17.40;99.90;;;;;;4953021;28;20046;-58
2022/09/30 10:52:02;;;;;;;5.07;3.58;;;17.50;99.90;;;;;;4983780;28;20050;-61
2022/09/30 10:54:42;;;;;;;5.93;3.60;;;17.50;99.90;;;;;;4977296;28;20403;-59
2022/09/30 10:57:30;;;;;;;5.15;3.20;;;17.60;99.90;;;;;;4975841;28;20030;-59
2022/09/30 11:00:12;;;;;;;5.28;3.67;;;17.50;99.80;;;;;;4962968;28;20567;-58
2022/09/30 11:02:57;;;;;;;4.85;3.53;;;17.60;99.90;;;;;;4975758;28;20121;-57
2022/09/30 11:05:23;;;;;;;5.40;2.90;;;17.60;99.90;;;;;;4984561;28;20532;-61
2022/09/30 11:08:26;;;;;;;80.78;8.60;;;17.60;99.90;;;;;;4984283;28;20122;-59
2022/09/30 11:11:14;;;;;;;5.13;2.85;;;17.60;99.90;;;;;;4961611;28;20093;-60
2022/09/30 11:14:18;;;;;;;11.18;3.28;;;17.40;99.90;;;;;;4983864;28;20074;-61
2022/09/30 11:16:52;;;;;;;3.08;2.60;;;17.30;99.90;;;;;;4981627;28;20506;-67
2022/09/30 11:19:29;;;;;;;4.25;2.20;;;17.20;99.90;;;;;;4984455;28;20113;-59
2022/09/30 11:22:05;;;;;;;3.17;2.35;;;17.10;99.90;;;;;;4989314;28;20037;-59
2022/09/30 11:24:46;;;;;;;4.50;2.45;;;16.90;99.90;;;;;;4978537;28;20520;-60
2022/09/30 11:27:23;;;;;;;2.17;1.75;;;17.10;99.90;;;;;;4971492;28;20054;-61
2022/09/30 11:29:55;;;;;;;3.00;1.67;;;17.30;99.90;;;;;;4980225;28;20034;-61
2022/09/30 11:32:23;;;;;;;1.58;1.20;;;17.60;99.90;;;;;;4998861;28;20046;-59
2022/09/30 11:34:57;;;;;;;4.70;1.42;;;17.50;99.90;;;;;;4990596;28;20034;-61
2022/09/30 11:37:45;;;;;;;2.20;1.60;;;17.40;99.90;;;;;;4998836;28;20049;-60
2022/09/30 11:40:37;;;;;;;1.80;1.25;;;17.10;99.90;;;;;;4986984;28;20493;-60
2022/09/30 11:43:31;;;;;;;1.95;1.40;;;17.10;99.90;;;;;;4992390;28;20145;-58
2022/09/30 11:46:12;;;;;;;2.97;1.60;;;16.80;99.90;;;;;;4976251;28;20064;-60
2022/09/30 11:48:59;;;;;;;2.63;1.20;;;16.70;99.90;;;;;;4985617;28;20126;-61
2022/09/30 11:51:46;;;;;;;1.00;0.65;;;17.00;99.90;;;;;;4978254;28;20100;-63
2022/09/30 11:54:23;;;;;;;2.30;1.13;;;16.90;99.90;;;;;;4970273;28;20039;-61
2022/09/30 11:57:04;;;;;;;1.13;0.98;;;16.90;99.90;;;;;;4976624;28;20466;-60
2022/09/30 11:59:40;;;;;;;2.00;1.00;;;16.80;99.90;;;;;;4969406;28;20046;-60
2022/09/30 12:02:17;;;;;;;1.35;0.82;;;17.00;99.90;;;;;;4984468;28;20266;-61
2022/09/30 12:04:45;;;;;;;0.85;0.60;;;17.30;99.90;;;;;;4977534;28;20040;-61
2022/09/30 12:07:21;;;;;;;1.50;0.82;;;17.30;99.30;;;;;;4943911;28;20042;-61
2022/09/30 12:10:00;;;;;;;2.30;0.70;;;17.10;98.90;;;;;;4968682;28;20041;-62
2022/09/30 12:12:26;;;;;;;0.60;0.43;;;17.20;99.00;;;;;;4985853;28;20100;-61
2022/09/30 12:15:04;;;;;;;1.13;0.60;;;17.50;98.80;;;;;;4978307;28;20648;-62
2022/09/30 12:17:41;;;;;;;0.50;0.50;;;17.70;98.00;;;;;;4968643;28;20548;-67
2022/09/30 12:20:13;;;;;;;0.85;0.50;;;17.90;97.60;;;;;;4973625;28;20394;-60
2022/09/30 12:22:42;;;;;;;2.55;0.68;;;18.00;97.50;;;;;;4994336;28;20038;-60
2022/09/30 12:25:23;;;;;;;1.25;0.80;;;18.10;97.40;;;;;;4980045;28;20042;-61
2022/09/30 12:27:55;;;;;;;1.38;0.60;;;18.30;97.10;;;;;;4996937;28;20037;-60
2022/09/30 12:30:22;;;;;;;2.15;1.25;;;18.40;97.30;;;;;;4998007;28;20043;-60
2022/09/30 12:33:17;;;;;;;0.55;0.50;;;18.50;97.30;;;;;;4988498;28;20069;-60
2022/09/30 12:36:13;;;;;;;1.67;0.90;;;18.60;96.80;;;;;;4976840;28;20043;-61
2022/09/30 12:39:36;;;;;;;2.90;0.93;;;18.60;96.60;;;;;;4975960;28;20112;-61
2022/09/30 12:42:20;;;;;;;1.90;0.98;;;18.60;95.80;;;;;;4914367;29;20155;-61
2022/09/30 12:44:58;;;;;;;;;;;18.60;96.60;;;;;;4934219;29;20554;-61
2022/09/30 12:47:51;;;;;;;1.95;1.27;;;18.70;96.40;;;;;;4943159;28;19922;-61
2022/09/30 12:50:28;;;;;;;1.73;1.20;;;18.90;96.20;;;;;;4959412;28;20070;-61
2022/09/30 12:52:56;;;;;;;2.30;1.40;;;18.90;96.00;;;;;;4983950;28;20098;-62
2022/09/30 12:55:30;;;;;;;1.20;1.08;;;18.90;96.00;;;;;;4983256;28;20042;-61
2022/09/30 12:58:00;;;;;;;1.02;0.73;;;19.00;96.30;;;;;;4993785;28;20042;-61
2022/09/30 13:00:29;;;;;;;1.90;0.60;;;19.00;95.30;;;;;;4963901;28;20481;-61
2022/09/30 13:02:56;;;;;;;2.50;0.82;;;19.00;95.60;;;;;;5009872;22;20042;-60
2022/09/30 13:05:25;;;;;;;1.60;0.98;;;19.10;95.10;;;;;;4954752;28;20951;-61
2022/09/30 13:08:03;;;;;;;1.27;0.70;;;19.20;94.80;;;;;;4963322;28;20516;-61
2022/09/30 13:10:42;;;;;;;1.67;0.68;;;19.30;94.80;;;;;;4953581;28;20322;-61
2022/09/30 13:13:23;;;;;;;0.77;0.70;;;19.20;94.90;;;;;;4955940;28;20490;-61
2022/09/30 13:15:55;;;;;;;1.15;0.80;;;19.10;94.10;;;;;;4963037;28;20040;-60
2022/09/30 13:18:26;;;;;;;0.80;0.70;;;19.00;94.50;;;;;;4964040;28;20445;-61
2022/09/30 13:21:03;;;;;;;0.60;0.60;;;19.10;94.70;;;;;;4959291;28;20051;-61
2022/09/30 13:23:45;;;;;;;2.63;1.00;;;19.10;94.30;;;;;;4963521;28;20039;-62
2022/09/30 13:26:32;;;;;;;1.23;0.90;;;19.10;94.30;;;;;;4960103;28;20047;-62
2022/09/30 13:29:00;;;;;;;2.47;1.00;;;19.20;94.70;;;;;;4954498;28;20031;-60